Time;durP1;ratioP1;P1;durP2;ratioP2;P2;SDS_P1;SDS_P2;PMS_P1;PMS_P2;Temp;Humidity;BMP_temperature;BMP_pressure;BME280_temperature;BME280_humidity;BME280_pressure;Samples;Min_cycle;Max_cycle;Signal;HPM_P1;HPM_P2
2023/01/06 00:00:26;;;;;;;58.75;29.42;;;;;;;;;;5007413;28;20032;-47
2023/01/06 00:02:51;;;;;;;31.50;15.88;;;;;;;;;;5004023;28;20046;-43
2023/01/06 00:05:16;;;;;;;42.70;22.70;;;;;;;;;;5006670;28;20355;-42
2023/01/06 00:07:43;;;;;;;25.40;13.38;;;;;;;;;;5001822;28;20046;-42
2023/01/06 00:10:10;;;;;;;29.25;17.13;;;;;;;;;;5003192;28;20099;-42
2023/01/06 00:12:36;;;;;;;25.50;13.05;;;;;;;;;;5008367;28;20980;-43
2023/01/06 00:15:01;;;;;;;18.65;11.43;;;;;;;;;;5005385;28;20025;-42
2023/01/06 00:17:27;;;;;;;24.65;14.90;;;;;;;;;;5006832;28;20034;-43
2023/01/06 00:19:52;;;;;;;16.95;9.82;;;;;;;;;;5003628;28;20417;-41
2023/01/06 00:22:18;;;;;;;25.15;11.20;;;;;;;;;;5006224;28;20038;-46
2023/01/06 00:24:43;;;;;;;19.20;12.20;;;;;;;;;;5007507;28;20054;-41
2023/01/06 00:27:09;;;;;;;28.08;13.93;;;;;;;;;;5007318;28;20034;-45
2023/01/06 00:29:34;;;;;;;25.75;15.77;;;;;;;;;;5006848;28;20022;-42
2023/01/06 00:32:01;;;;;;;34.45;18.10;;;;;;;;;;5001578;28;20084;-44
2023/01/06 00:34:27;;;;;;;139.27;66.50;;;;;;;;;;5005841;28;20022;-46
2023/01/06 00:36:53;;;;;;;33.47;16.52;;;;;;;;;;5005139;28;20034;-43
2023/01/06 00:39:18;;;;;;;17.13;12.50;;;;;;;;;;5005013;28;20026;-43
2023/01/06 00:42:02;;;;;;;25.13;13.90;;;;;;;;;;5006350;28;20470;-47
2023/01/06 00:44:31;;;;;;;26.65;13.57;;;;;;;;;;5005847;28;20029;-43
2023/01/06 00:46:57;;;;;;;29.83;14.50;;;;;;;;;;5007359;28;20666;-44
2023/01/06 00:49:22;;;;;;;21.95;13.60;;;;;;;;;;5005024;28;20025;-47
2023/01/06 00:51:48;;;;;;;16.23;9.68;;;;;;;;;;5005334;28;20042;-44
2023/01/06 00:54:14;;;;;;;19.85;10.30;;;;;;;;;;5006507;28;20037;-46
2023/01/06 00:56:42;;;;;;;25.40;13.05;;;;;;;;;;5006345;28;20030;-41
2023/01/06 00:59:08;;;;;;;14.77;9.30;;;;;;;;;;5005976;28;20045;-45
2023/01/06 01:01:34;;;;;;;17.00;9.73;;;;;;;;;;5005039;28;20025;-43
2023/01/06 01:04:00;;;;;;;16.33;10.25;;;;;;;;;;5023079;28;20119;-46
2023/01/06 01:06:25;;;;;;;13.18;8.60;;;;;;;;;;5026153;28;20030;-44
2023/01/06 01:08:55;;;;;;;12.50;8.23;;;;;;;;;;5005216;28;20062;-43
2023/01/06 01:14:07;;;;;;;10.43;6.93;;;;;;;;;;4985682;28;20046;-45
2023/01/06 01:16:32;;;;;;;18.25;9.27;;;;;;;;;;4986382;28;20601;-42
2023/01/06 01:18:58;;;;;;;9.80;7.15;;;;;;;;;;5004737;28;20041;-47
2023/01/06 01:21:24;;;;;;;12.15;7.65;;;;;;;;;;5006996;28;20030;-43
2023/01/06 01:23:49;;;;;;;14.27;9.15;;;;;;;;;;5004445;28;20561;-44
2023/01/06 01:26:15;;;;;;;12.30;7.95;;;;;;;;;;5003062;28;20050;-43
2023/01/06 01:28:40;;;;;;;10.50;7.53;;;;;;;;;;5004483;28;20573;-42
2023/01/06 01:31:05;;;;;;;13.75;7.38;;;;;;;;;;5005798;28;20185;-45
2023/01/06 01:33:31;;;;;;;9.68;7.40;;;;;;;;;;5002541;28;20069;-43
2023/01/06 01:35:57;;;;;;;15.75;8.68;;;;;;;;;;5003741;28;20128;-45
2023/01/06 01:38:24;;;;;;;12.60;8.07;;;;;;;;;;5004647;28;20604;-42
2023/01/06 01:40:50;;;;;;;17.42;8.93;;;;;;;;;;5005998;28;20030;-46
2023/01/06 01:43:16;;;;;;;11.02;7.20;;;;;;;;;;5004589;28;20042;-45
2023/01/06 01:45:44;;;;;;;14.30;8.40;;;;;;;;;;5005509;28;20489;-43
2023/01/06 01:48:31;;;;;;;19.30;8.75;;;;;;;;;;5005025;28;20513;-41
2023/01/06 01:51:01;;;;;;;19.92;8.30;;;;;;;;;;5011117;28;20042;-42
2023/01/06 01:53:41;;;;;;;17.42;9.38;;;;;;;;;;5022706;28;20144;-41
2023/01/06 01:56:11;;;;;;;10.70;8.00;;;;;;;;;;5024858;28;20041;-42
2023/01/06 01:58:44;;;;;;;10.55;7.53;;;;;;;;;;5022603;28;20030;-42
2023/01/06 02:01:11;;;;;;;13.30;8.18;;;;;;;;;;5022478;28;20034;-43
2023/01/06 02:03:39;;;;;;;11.30;7.05;;;;;;;;;;5024639;28;20057;-44
2023/01/06 02:06:15;;;;;;;17.35;9.60;;;;;;;;;;5021618;28;20101;-42
2023/01/06 02:09:03;;;;;;;13.65;8.13;;;;;;;;;;5024801;28;20439;-45
2023/01/06 02:11:32;;;;;;;25.33;11.27;;;;;;;;;;5024186;28;20060;-41
2023/01/06 02:14:16;;;;;;;16.45;8.80;;;;;;;;;;5021939;28;20085;-44
2023/01/06 02:16:52;;;;;;;27.08;12.77;;;;;;;;;;5026513;28;20038;-42
2023/01/06 02:19:55;;;;;;;13.05;7.93;;;;;;;;;;5023029;28;20032;-42
2023/01/06 02:22:32;;;;;;;11.52;6.85;;;;;;;;;;5018374;28;20593;-44
2023/01/06 02:25:16;;;;;;;16.10;8.80;;;;;;;;;;5009075;28;20068;-45
2023/01/06 02:27:50;;;;;;;13.85;7.63;;;;;;;;;;5017450;28;20056;-44
2023/01/06 02:30:56;;;;;;;8.10;6.43;;;;;;;;;;5026461;28;20034;-44
2023/01/06 02:33:30;;;;;;;13.82;8.30;;;;;;;;;;5020683;28;20041;-42
2023/01/06 02:36:07;;;;;;;13.35;7.07;;;;;;;;;;5023624;28;20029;-43
2023/01/06 02:38:44;;;;;;;11.27;7.22;;;;;;;;;;5023699;28;20065;-46
2023/01/06 02:41:18;;;;;;;9.77;6.68;;;;;;;;;;5021764;28;20045;-42
2023/01/06 02:43:50;;;;;;;14.43;6.55;;;;;;;;;;5025278;28;20720;-42
2023/01/06 02:46:43;;;;;;;10.73;7.45;;;;;;;;;;5023147;28;20470;-50
2023/01/06 02:49:14;;;;;;;11.30;6.78;;;;;;;;;;5024341;28;20042;-42
2023/01/06 02:51:56;;;;;;;15.05;8.57;;;;;;;;;;5023525;28;20102;-47
2023/01/06 02:54:33;;;;;;;16.50;7.40;;;;;;;;;;5021386;28;20091;-44
2023/01/06 02:57:21;;;;;;;10.10;6.90;;;;;;;;;;5020156;28;20049;-43
2023/01/06 03:00:20;;;;;;;12.88;6.88;;;;;;;;;;5026378;28;20030;-43
2023/01/06 03:02:53;;;;;;;14.05;7.68;;;;;;;;;;5022549;28;20490;-43
2023/01/06 03:05:22;;;;;;;10.25;7.22;;;;;;;;;;5024000;28;20022;-42
2023/01/06 03:07:48;;;;;;;8.57;7.00;;;;;;;;;;5028155;28;20081;-45
2023/01/06 03:10:16;;;;;;;25.77;12.13;;;;;;;;;;5027693;28;20021;-44
2023/01/06 03:12:52;;;;;;;12.30;8.88;;;;;;;;;;5025987;28;20045;-44
2023/01/06 03:15:19;;;;;;;14.45;8.13;;;;;;;;;;5025159;28;20103;-46
2023/01/06 03:17:44;;;;;;;12.85;7.25;;;;;;;;;;5025341;28;20041;-44
2023/01/06 03:20:11;;;;;;;12.35;8.00;;;;;;;;;;5026345;28;20030;-44
2023/01/06 03:22:37;;;;;;;15.23;8.98;;;;;;;;;;5027875;28;20046;-45
2023/01/06 03:25:05;;;;;;;8.75;6.38;;;;;;;;;;5028742;28;20481;-47
2023/01/06 03:27:31;;;;;;;11.85;8.20;;;;;;;;;;5029845;28;20099;-46
2023/01/06 03:29:56;;;;;;;8.68;6.53;;;;;;;;;;5026366;28;20030;-43
2023/01/06 03:32:41;;;;;;;14.52;8.13;;;;;;;;;;5023017;28;20041;-44
2023/01/06 03:35:45;;;;;;;9.98;7.78;;;;;;;;;;5028237;28;20421;-44
2023/01/06 03:38:25;;;;;;;11.93;6.93;;;;;;;;;;5026815;28;20045;-42
2023/01/06 03:40:58;;;;;;;12.70;6.78;;;;;;;;;;5022711;28;20437;-46
2023/01/06 03:43:52;;;;;;;10.82;7.28;;;;;;;;;;5025808;28;20052;-45
2023/01/06 03:46:26;;;;;;;9.20;6.72;;;;;;;;;;5017016;28;20046;-45
2023/01/06 03:49:16;;;;;;;14.20;10.75;;;;;;;;;;5020701;28;20038;-43
2023/01/06 03:51:59;;;;;;;13.57;6.95;;;;;;;;;;5024868;28;20091;-50
2023/01/06 03:55:04;;;;;;;8.60;6.70;;;;;;;;;;5026478;28;20049;-45
2023/01/06 03:57:36;;;;;;;9.82;6.32;;;;;;;;;;4985890;28;20047;-47
2023/01/06 04:00:15;;;;;;;9.60;6.90;;;;;;;;;;4985153;28;20034;-42
2023/01/06 04:02:41;;;;;;;9.18;6.20;;;;;;;;;;4985783;28;20802;-44
2023/01/06 04:05:11;;;;;;;7.18;6.32;;;;;;;;;;4986557;28;20034;-45
2023/01/06 04:07:38;;;;;;;9.32;6.05;;;;;;;;;;4983418;28;20043;-44
2023/01/06 04:10:04;;;;;;;8.52;6.03;;;;;;;;;;4984963;28;20049;-46
2023/01/06 04:12:38;;;;;;;9.50;6.10;;;;;;;;;;4986777;28;20069;-49
2023/01/06 04:15:20;;;;;;;9.07;6.28;;;;;;;;;;4993912;28;20405;-43
2023/01/06 04:17:46;;;;;;;11.63;7.03;;;;;;;;;;4999309;28;20119;-49
2023/01/06 04:20:14;;;;;;;9.20;6.38;;;;;;;;;;4997774;28;20037;-43
2023/01/06 04:22:40;;;;;;;18.02;8.20;;;;;;;;;;4999531;28;20073;-45
2023/01/06 04:25:06;;;;;;;14.70;10.48;;;;;;;;;;5005067;28;20037;-43
2023/01/06 04:27:32;;;;;;;16.05;9.95;;;;;;;;;;5004815;28;20045;-43
2023/01/06 04:29:57;;;;;;;18.75;11.48;;;;;;;;;;5004724;28;20526;-44
2023/01/06 04:32:23;;;;;;;12.93;7.10;;;;;;;;;;5006165;28;20053;-49
2023/01/06 04:34:48;;;;;;;15.68;8.93;;;;;;;;;;5019228;28;20049;-51
2023/01/06 04:37:13;;;;;;;14.43;8.65;;;;;;;;;;5025723;28;20052;-44
2023/01/06 04:39:39;;;;;;;25.05;11.43;;;;;;;;;;5025412;28;20022;-42
2023/01/06 04:42:04;;;;;;;16.27;11.20;;;;;;;;;;5023836;28;20037;-43
2023/01/06 04:44:30;;;;;;;17.73;10.55;;;;;;;;;;5025678;28;20032;-41
2023/01/06 04:46:55;;;;;;;11.25;8.43;;;;;;;;;;5025138;28;20045;-42
2023/01/06 04:49:20;;;;;;;20.90;11.43;;;;;;;;;;5024488;28;20022;-45
2023/01/06 04:51:46;;;;;;;37.00;19.40;;;;;;;;;;5025709;28;20032;-42
2023/01/06 04:54:11;;;;;;;31.10;16.83;;;;;;;;;;5023504;28;20512;-44
2023/01/06 04:56:37;;;;;;;9.82;7.32;;;;;;;;;;5021844;28;20020;-49
2023/01/06 04:59:02;;;;;;;14.23;7.53;;;;;;;;;;5026551;28;20512;-42
2023/01/06 05:01:27;;;;;;;14.27;9.32;;;;;;;;;;5021331;28;20068;-42
2023/01/06 05:03:53;;;;;;;19.95;11.75;;;;;;;;;;5023781;28;20046;-46
2023/01/06 05:06:19;;;;;;;15.25;9.00;;;;;;;;;;5024421;28;20060;-43
2023/01/06 05:08:44;;;;;;;16.60;7.85;;;;;;;;;;5025473;28;20099;-43
2023/01/06 05:11:16;;;;;;;11.77;8.35;;;;;;;;;;5020486;28;20029;-45
2023/01/06 05:13:42;;;;;;;7.53;6.15;;;;;;;;;;5025127;28;20049;-44
2023/01/06 05:16:28;;;;;;;10.07;5.85;;;;;;;;;;5023214;28;20030;-42
2023/01/06 05:18:54;;;;;;;9.43;7.13;;;;;;;;;;5021102;28;20405;-42
2023/01/06 05:21:21;;;;;;;8.13;6.82;;;;;;;;;;5024489;28;20033;-45
2023/01/06 05:23:46;;;;;;;12.02;7.80;;;;;;;;;;5023526;28;20036;-47
2023/01/06 05:26:16;;;;;;;11.63;7.10;;;;;;;;;;5022547;28;20100;-45
2023/01/06 05:28:42;;;;;;;14.27;7.68;;;;;;;;;;5022862;28;20041;-42
2023/01/06 05:31:08;;;;;;;17.65;12.23;;;;;;;;;;5024816;28;20453;-45
2023/01/06 05:33:34;;;;;;;10.40;7.32;;;;;;;;;;5019459;28;20045;-46
2023/01/06 05:36:01;;;;;;;11.88;8.40;;;;;;;;;;5026915;28;20035;-46
2023/01/06 05:38:27;;;;;;;10.00;6.63;;;;;;;;;;5025121;28;20061;-43
2023/01/06 05:40:53;;;;;;;30.10;11.13;;;;;;;;;;5021030;28;20560;-43
2023/01/06 05:43:22;;;;;;;15.40;8.45;;;;;;;;;;5021549;28;20045;-48
2023/01/06 05:45:48;;;;;;;8.50;7.03;;;;;;;;;;5026071;28;20048;-45
2023/01/06 05:48:14;;;;;;;10.52;7.72;;;;;;;;;;5022499;28;20045;-47
2023/01/06 05:50:39;;;;;;;7.18;6.20;;;;;;;;;;5024002;28;20052;-42
2023/01/06 05:53:05;;;;;;;18.30;11.15;;;;;;;;;;5021929;28;20038;-42
2023/01/06 05:55:30;;;;;;;75.72;39.38;;;;;;;;;;5022533;28;20032;-45
2023/01/06 05:57:56;;;;;;;50.17;26.88;;;;;;;;;;5024337;28;20121;-42
2023/01/06 06:00:21;;;;;;;35.42;20.77;;;;;;;;;;5019081;28;20865;-42
2023/01/06 06:02:47;;;;;;;27.80;15.35;;;;;;;;;;5024516;28;20056;-45
2023/01/06 06:05:12;;;;;;;133.10;63.58;;;;;;;;;;5018995;28;20026;-45
2023/01/06 06:07:37;;;;;;;18.05;7.90;;;;;;;;;;5020603;28;20065;-42
2023/01/06 06:10:03;;;;;;;15.15;8.90;;;;;;;;;;5015706;28;20022;-45
2023/01/06 06:12:29;;;;;;;10.20;5.95;;;;;;;;;;5021557;28;20037;-49
2023/01/06 06:14:54;;;;;;;14.73;6.95;;;;;;;;;;5025432;28;20087;-43
2023/01/06 06:17:20;;;;;;;11.98;7.45;;;;;;;;;;5024828;28;20099;-42
2023/01/06 06:19:45;;;;;;;11.00;6.40;;;;;;;;;;5023223;28;20379;-45
2023/01/06 06:22:11;;;;;;;11.50;7.05;;;;;;;;;;5025040;28;20037;-47
2023/01/06 06:24:36;;;;;;;33.45;16.88;;;;;;;;;;5020677;28;20064;-45
2023/01/06 06:27:02;;;;;;;15.55;10.73;;;;;;;;;;5025113;28;20398;-42
2023/01/06 06:29:27;;;;;;;13.32;7.57;;;;;;;;;;5018429;28;20104;-43
2023/01/06 06:31:52;;;;;;;15.13;7.50;;;;;;;;;;5021838;28;20099;-44
2023/01/06 06:34:18;;;;;;;11.73;7.13;;;;;;;;;;5021466;28;20385;-45
2023/01/06 06:36:43;;;;;;;14.10;6.90;;;;;;;;;;5028352;28;20030;-44
2023/01/06 06:39:09;;;;;;;15.52;7.95;;;;;;;;;;5022537;28;20064;-45
2023/01/06 06:41:34;;;;;;;17.48;9.20;;;;;;;;;;5022537;28;20025;-43
2023/01/06 06:44:00;;;;;;;10.07;7.40;;;;;;;;;;5022973;28;20099;-46
2023/01/06 06:46:25;;;;;;;10.25;6.45;;;;;;;;;;5023737;28;20025;-43
2023/01/06 06:48:51;;;;;;;11.63;7.50;;;;;;;;;;5026109;28;20033;-44
2023/01/06 06:51:18;;;;;;;13.23;9.00;;;;;;;;;;5025398;28;20029;-47
2023/01/06 06:53:44;;;;;;;22.05;11.93;;;;;;;;;;5026439;28;20127;-46
2023/01/06 06:56:11;;;;;;;14.68;9.10;;;;;;;;;;5022938;28;20079;-44
2023/01/06 06:58:36;;;;;;;18.25;9.82;;;;;;;;;;5028286;28;20049;-45
2023/01/06 07:01:06;;;;;;;14.38;8.00;;;;;;;;;;5023676;28;20037;-44
2023/01/06 07:03:32;;;;;;;7.85;7.07;;;;;;;;;;5022211;28;20041;-47
2023/01/06 07:05:58;;;;;;;11.00;7.45;;;;;;;;;;5025766;28;20025;-49
2023/01/06 07:08:23;;;;;;;14.75;8.40;;;;;;;;;;5027708;28;20566;-46
2023/01/06 07:10:50;;;;;;;10.68;7.03;;;;;;;;;;5025498;28;20044;-48
2023/01/06 07:13:16;;;;;;;10.43;6.43;;;;;;;;;;5021474;28;20057;-43
2023/01/06 07:15:41;;;;;;;8.45;5.72;;;;;;;;;;5027062;28;20030;-44
2023/01/06 07:18:07;;;;;;;9.63;6.55;;;;;;;;;;5027783;28;20050;-44
2023/01/06 07:20:34;;;;;;;11.73;7.30;;;;;;;;;;5051872;28;20032;-49
2023/01/06 07:23:00;;;;;;;13.60;7.68;;;;;;;;;;5022726;28;20046;-49
2023/01/06 07:25:25;;;;;;;8.25;5.53;;;;;;;;;;5024278;28;20038;-41
2023/01/06 07:27:59;;;;;;;10.40;5.80;;;;;;;;;;5029085;28;20041;-45
2023/01/06 07:30:26;;;;;;;9.27;5.72;;;;;;;;;;5028653;28;20381;-47
2023/01/06 07:32:52;;;;;;;11.15;6.47;;;;;;;;;;5023685;28;20132;-48
2023/01/06 07:35:18;;;;;;;9.63;6.72;;;;;;;;;;5024277;28;20105;-44
2023/01/06 07:37:44;;;;;;;9.23;6.03;;;;;;;;;;5026421;28;20049;-42
2023/01/06 07:40:10;;;;;;;7.28;5.90;;;;;;;;;;5029655;28;20115;-42
2023/01/06 07:42:36;;;;;;;8.35;5.30;;;;;;;;;;5023462;28;20038;-42
2023/01/06 07:45:02;;;;;;;10.82;5.50;;;;;;;;;;5029897;28;20043;-44
2023/01/06 07:47:28;;;;;;;9.52;6.05;;;;;;;;;;5026002;28;20049;-42
2023/01/06 07:49:53;;;;;;;8.35;5.15;;;;;;;;;;5029043;28;20496;-43
2023/01/06 07:52:18;;;;;;;10.57;5.30;;;;;;;;;;5028100;28;20045;-42
2023/01/06 07:54:44;;;;;;;7.90;5.03;;;;;;;;;;5025081;28;20041;-43
2023/01/06 07:57:09;;;;;;;11.05;6.45;;;;;;;;;;5026785;28;20041;-41
2023/01/06 07:59:34;;;;;;;10.20;7.15;;;;;;;;;;5027900;28;20021;-44
2023/01/06 08:02:00;;;;;;;14.55;8.48;;;;;;;;;;5027636;28;20033;-42
2023/01/06 08:04:25;;;;;;;10.98;6.25;;;;;;;;;;5023665;28;20474;-48
2023/01/06 08:06:51;;;;;;;16.70;5.22;;;;;;;;;;5022890;28;20053;-42
2023/01/06 08:09:16;;;;;;;10.07;5.90;;;;;;;;;;5028256;28;20021;-42
2023/01/06 08:11:41;;;;;;;15.93;5.60;;;;;;;;;;5027074;28;20127;-42
2023/01/06 08:14:07;;;;;;;8.38;6.20;;;;;;;;;;5027592;28;20494;-42
2023/01/06 08:16:32;;;;;;;8.98;6.13;;;;;;;;;;5025239;28;20038;-44
2023/01/06 08:18:57;;;;;;;9.15;5.35;;;;;;;;;;5026153;28;20450;-47
2023/01/06 08:21:23;;;;;;;9.52;5.43;;;;;;;;;;5026045;28;20029;-45
2023/01/06 08:23:48;;;;;;;6.15;4.95;;;;;;;;;;5021744;28;20033;-45
2023/01/06 08:26:16;;;;;;;11.73;5.20;;;;;;;;;;5026375;28;20037;-48
2023/01/06 08:28:43;;;;;;;6.72;4.60;;;;;;;;;;5028064;28;20141;-48
2023/01/06 08:31:15;;;;;;;6.00;4.50;;;;;;;;;;5026653;28;20068;-47
2023/01/06 08:33:41;;;;;;;11.23;6.90;;;;;;;;;;5027216;28;20132;-44
2023/01/06 08:36:10;;;;;;;7.88;4.63;;;;;;;;;;5024947;28;20057;-51
2023/01/06 08:38:36;;;;;;;8.05;4.70;;;;;;;;;;5027389;28;20044;-44
2023/01/06 08:41:02;;;;;;;14.43;4.50;;;;;;;;;;5024852;28;20532;-48
2023/01/06 08:43:28;;;;;;;6.20;4.55;;;;;;;;;;5025800;28;20037;-48
2023/01/06 08:45:58;;;;;;;7.20;4.45;;;;;;;;;;5028642;28;20025;-46
2023/01/06 08:48:24;;;;;;;6.07;4.22;;;;;;;;;;5025195;28;20065;-46
2023/01/06 08:50:49;;;;;;;8.13;4.63;;;;;;;;;;5027642;28;20052;-44
2023/01/06 08:53:14;;;;;;;10.93;4.35;;;;;;;;;;5025421;28;20050;-42
2023/01/06 08:55:41;;;;;;;6.28;4.05;;;;;;;;;;5026913;28;20113;-43
2023/01/06 08:58:08;;;;;;;7.53;4.40;;;;;;;;;;5024136;28;20132;-42
2023/01/06 09:00:34;;;;;;;10.15;4.53;;;;;;;;;;5023712;28;20032;-42
2023/01/06 09:03:00;;;;;;;6.28;4.13;;;;;;;;;;5023410;28;20042;-43
2023/01/06 09:05:25;;;;;;;9.00;4.18;;;;;;;;;;5027405;28;20079;-45
2023/01/06 09:07:50;;;;;;;7.30;3.67;;;;;;;;;;5028629;28;20040;-42
2023/01/06 09:10:17;;;;;;;5.68;4.10;;;;;;;;;;5024333;28;20056;-41
2023/01/06 09:12:43;;;;;;;4.65;3.92;;;;;;;;;;5028139;28;20048;-40
2023/01/06 09:15:08;;;;;;;5.38;4.07;;;;;;;;;;5024795;28;20108;-42
2023/01/06 09:17:34;;;;;;;10.13;3.72;;;;;;;;;;5025221;28;20041;-44
2023/01/06 09:19:59;;;;;;;5.50;3.00;;;;;;;;;;5025253;28;20052;-43
2023/01/06 09:22:25;;;;;;;9.05;3.63;;;;;;;;;;5024432;28;20046;-44
2023/01/06 09:24:50;;;;;;;6.28;3.53;;;;;;;;;;5024745;28;20120;-44
2023/01/06 09:27:16;;;;;;;4.00;3.20;;;;;;;;;;5026816;28;20482;-45
2023/01/06 09:29:41;;;;;;;4.07;3.33;;;;;;;;;;5026976;28;20040;-43
2023/01/06 09:32:06;;;;;;;7.10;4.00;;;;;;;;;;5025398;28;20055;-42
2023/01/06 09:34:33;;;;;;;4.63;3.40;;;;;;;;;;5024795;28;20032;-42
2023/01/06 09:36:58;;;;;;;5.68;3.70;;;;;;;;;;5028494;28;20045;-42
2023/01/06 09:39:24;;;;;;;8.88;3.53;;;;;;;;;;5026832;28;20072;-42
2023/01/06 09:42:11;;;;;;;8.48;3.90;;;;;;;;;;5023363;28;20087;-44
2023/01/06 09:44:49;;;;;;;8.10;3.72;;;;;;;;;;5026846;28;20041;-42
2023/01/06 09:47:18;;;;;;;4.95;3.08;;;;;;;;;;5025157;28;20080;-42
2023/01/06 09:49:56;;;;;;;7.15;3.58;;;;;;;;;;5023226;28;20098;-43
2023/01/06 09:52:27;;;;;;;6.25;3.58;;;;;;;;;;5020604;28;20041;-44
2023/01/06 09:54:57;;;;;;;8.88;3.53;;;;;;;;;;5024566;28;20448;-41
2023/01/06 09:57:39;;;;;;;11.23;3.33;;;;;;;;;;5024707;28;20156;-46
2023/01/06 10:00:18;;;;;;;3.88;3.35;;;;;;;;;;5025190;28;20124;-44
2023/01/06 10:02:44;;;;;;;3.70;3.20;;;;;;;;;;5023999;28;20516;-41
2023/01/06 10:05:18;;;;;;;5.75;3.60;;;;;;;;;;5023968;28;20025;-45
2023/01/06 10:07:58;;;;;;;6.25;3.83;;;;;;;;;;5024020;28;20112;-46
2023/01/06 10:10:41;;;;;;;7.32;4.00;;;;;;;;;;5024005;28;20041;-48
2023/01/06 10:13:32;;;;;;;8.90;3.40;;;;;;;;;;5021540;28;20827;-42
2023/01/06 10:16:28;;;;;;;5.97;3.53;;;;;;;;;;5022064;28;20030;-45
2023/01/06 10:19:08;;;;;;;5.05;3.53;;;;;;;;;;5019457;28;20049;-44
2023/01/06 10:21:55;;;;;;;9.30;4.15;;;;;;;;;;5020566;28;20025;-44
2023/01/06 10:24:29;;;;;;;5.22;3.60;;;;;;;;;;5024394;28;20022;-47
2023/01/06 10:27:25;;;;;;;4.45;3.60;;;;;;;;;;5023548;28;20108;-42
2023/01/06 10:29:53;;;;;;;5.97;3.90;;;;;;;;;;5022673;28;20069;-47
2023/01/06 10:32:20;;;;;;;5.85;3.17;;;;;;;;;;5018742;28;20387;-47
2023/01/06 10:34:48;;;;;;;4.15;3.55;;;;;;;;;;5019708;28;20041;-49
2023/01/06 10:37:21;;;;;;;5.50;3.55;;;;;;;;;;5018012;28;20460;-46
2023/01/06 10:39:52;;;;;;;9.45;3.28;;;;;;;;;;5025400;28;20037;-51
2023/01/06 10:42:56;;;;;;;4.30;3.20;;;;;;;;;;5021732;28;20037;-43
2023/01/06 10:45:26;;;;;;;4.03;2.90;;;;;;;;;;5022794;28;20041;-43
2023/01/06 10:47:53;;;;;;;5.88;3.03;;;;;;;;;;5020523;28;20076;-43
2023/01/06 10:50:18;;;;;;;6.88;3.10;;;;;;;;;;5016596;28;20065;-42
2023/01/06 10:52:46;;;;;;;6.25;3.22;;;;;;;;;;5025329;28;20061;-42
2023/01/06 10:55:36;;;;;;;10.65;5.10;;;;;;;;;;5023645;28;20040;-44
2023/01/06 10:58:38;;;;;;;6.72;3.83;;;;;;;;;;5023890;28;20038;-42
2023/01/06 11:01:10;;;;;;;6.35;3.03;;;;;;;;;;5017151;28;20502;-48
2023/01/06 11:03:36;;;;;;;5.57;3.65;;;;;;;;;;5021612;28;20136;-48
2023/01/06 11:06:22;;;;;;;6.30;3.40;;;;;;;;;;5024394;28;20046;-47
2023/01/06 11:08:48;;;;;;;3.08;2.85;;;;;;;;;;5015926;28;20052;-48
2023/01/06 11:11:15;;;;;;;6.90;4.18;;;;;;;;;;5021649;28;20126;-46
2023/01/06 11:13:46;;;;;;;7.03;3.95;;;;;;;;;;5017169;28;20780;-42
2023/01/06 11:16:31;;;;;;;9.55;4.00;;;;;;;;;;5025466;28;20044;-46
2023/01/06 11:18:59;;;;;;;7.15;4.25;;;;;;;;;;5022707;28;20047;-46
2023/01/06 11:21:43;;;;;;;5.97;3.88;;;;;;;;;;5026021;28;20466;-43
2023/01/06 11:24:20;;;;;;;5.28;4.00;;;;;;;;;;5027392;28;20073;-45
2023/01/06 11:27:15;;;;;;;11.02;5.10;;;;;;;;;;5026737;28;20030;-43
2023/01/06 11:29:41;;;;;;;6.90;3.30;;;;;;;;;;5029734;28;20417;-42
2023/01/06 11:32:15;;;;;;;4.90;3.63;;;;;;;;;;5029318;28;20033;-42
2023/01/06 11:34:53;;;;;;;5.03;3.63;;;;;;;;;;5027774;28;20037;-43
2023/01/06 11:37:38;;;;;;;12.75;4.53;;;;;;;;;;5026331;28;20517;-46
2023/01/06 11:40:18;;;;;;;6.95;4.93;;;;;;;;;;5021675;28;20049;-45
2023/01/06 11:42:48;;;;;;;5.22;3.88;;;;;;;;;;5021672;28;20071;-45
2023/01/06 11:45:28;;;;;;;11.65;5.05;;;;;;;;;;5024841;28;20037;-43
2023/01/06 11:47:54;;;;;;;8.73;4.45;;;;;;;;;;5024587;28;20383;-45
2023/01/06 11:50:20;;;;;;;9.77;4.60;;;;;;;;;;5025466;28;20087;-46
2023/01/06 11:53:01;;;;;;;9.63;4.75;;;;;;;;;;5023315;28;20061;-46
2023/01/06 11:55:26;;;;;;;6.82;4.25;;;;;;;;;;5025757;28;20812;-44
2023/01/06 11:58:26;;;;;;;8.25;4.18;;;;;;;;;;5028310;28;20108;-46
2023/01/06 12:00:58;;;;;;;7.50;3.92;;;;;;;;;;5020023;28;20499;-43
2023/01/06 12:03:31;;;;;;;5.75;4.18;;;;;;;;;;5027755;28;20064;-46
2023/01/06 12:06:06;;;;;;;10.93;5.75;;;;;;;;;;5026306;28;20026;-46
2023/01/06 12:08:49;;;;;;;13.80;10.18;;;;;;;;;;5025964;28;20490;-45
2023/01/06 12:11:38;;;;;;;18.52;9.65;;;;;;;;;;5025598;28;20103;-43
2023/01/06 12:14:04;;;;;;;17.00;10.15;;;;;;;;;;5021661;28;21550;-46
2023/01/06 12:16:33;;;;;;;28.13;12.77;;;;;;;;;;5024881;28;20061;-43
2023/01/06 12:18:58;;;;;;;16.95;12.13;;;;;;;;;;5028241;28;20053;-42
2023/01/06 12:21:29;;;;;;;23.85;12.52;;;;;;;;;;5028485;28;20410;-47
2023/01/06 12:23:58;;;;;;;28.88;16.40;;;;;;;;;;5027224;28;20433;-45
2023/01/06 12:26:24;;;;;;;27.42;14.75;;;;;;;;;;5026230;28;20041;-44
2023/01/06 12:28:52;;;;;;;31.40;15.48;;;;;;;;;;5021805;28;20555;-44
2023/01/06 12:31:59;;;;;;;26.42;10.90;;;;;;;;;;5028395;28;20018;-46
2023/01/06 12:34:37;;;;;;;15.43;8.73;;;;;;;;;;4985568;28;20553;-46
2023/01/06 12:37:09;;;;;;;17.55;7.03;;;;;;;;;;4977308;28;20054;-42
2023/01/06 12:39:46;;;;;;;18.77;9.25;;;;;;;;;;4983649;28;20101;-46
2023/01/06 12:42:34;;;;;;;12.18;8.65;;;;;;;;;;4980430;28;20478;-42
2023/01/06 12:45:08;;;;;;;12.73;6.30;;;;;;;;;;4980649;28;20047;-43
2023/01/06 12:47:48;;;;;;;10.00;4.85;;;;;;;;;;4982080;28;20047;-46
2023/01/06 12:50:39;;;;;;;10.80;6.32;;;;;;;;;;4980366;28;20037;-46
2023/01/06 12:53:11;;;;;;;10.30;5.38;;;;;;;;;;4983379;28;20121;-45
2023/01/06 12:55:54;;;;;;;14.07;6.00;;;;;;;;;;4980221;28;20486;-42
2023/01/06 12:58:25;;;;;;;8.15;4.80;;;;;;;;;;4981307;28;20054;-42
2023/01/06 13:00:57;;;;;;;6.45;3.38;;;;;;;;;;4981997;28;20097;-43
2023/01/06 13:03:34;;;;;;;7.60;4.00;;;;;;;;;;4983430;28;20509;-43
2023/01/06 13:06:11;;;;;;;12.85;6.28;;;;;;;;;;4984968;28;20043;-43
2023/01/06 13:09:21;;;;;;;9.35;5.72;;;;;;;;;;4985763;28;20510;-43
2023/01/06 13:11:49;;;;;;;11.85;5.38;;;;;;;;;;5009542;28;20103;-43
2023/01/06 13:14:37;;;;;;;8.50;4.60;;;;;;;;;;5027334;28;20042;-46
2023/01/06 13:17:15;;;;;;;11.07;4.80;;;;;;;;;;5026204;28;20470;-44
2023/01/06 13:19:50;;;;;;;9.40;4.10;;;;;;;;;;5027032;28;20076;-46
2023/01/06 13:22:20;;;;;;;5.28;3.83;;;;;;;;;;5024601;28;20124;-44
2023/01/06 13:25:00;;;;;;;5.07;3.65;;;;;;;;;;5027239;28;20061;-43
2023/01/06 13:27:44;;;;;;;14.55;4.50;;;;;;;;;;5018023;28;20046;-44
2023/01/06 13:30:23;;;;;;;7.70;4.03;;;;;;;;;;5017519;28;20116;-44
2023/01/06 13:32:55;;;;;;;8.57;5.13;;;;;;;;;;5014062;28;20128;-48
2023/01/06 13:35:45;;;;;;;4.63;4.22;;;;;;;;;;5018644;28;20605;-43
2023/01/06 13:38:56;;;;;;;8.05;4.15;;;;;;;;;;5011139;28;20034;-43
2023/01/06 13:41:30;;;;;;;6.78;3.53;;;;;;;;;;4967852;28;20112;-47
2023/01/06 13:43:57;;;;;;;7.03;3.90;;;;;;;;;;4966518;28;20039;-45
2023/01/06 13:46:25;;;;;;;7.32;3.95;;;;;;;;;;4963553;28;20035;-45
2023/01/06 13:48:54;;;;;;;6.93;3.58;;;;;;;;;;4964106;28;20077;-46
2023/01/06 13:51:25;;;;;;;8.48;3.20;;;;;;;;;;4965015;28;20050;-43
2023/01/06 13:53:53;;;;;;;6.68;3.45;;;;;;;;;;4974274;28;20081;-43
2023/01/06 13:56:23;;;;;;;5.47;3.72;;;;;;;;;;4961596;28;20031;-42
2023/01/06 13:58:50;;;;;;;7.53;3.63;;;;;;;;;;4983932;28;20129;-43
2023/01/06 14:01:18;;;;;;;11.38;4.18;;;;;;;;;;4980572;28;20038;-43
2023/01/06 14:03:45;;;;;;;7.10;3.90;;;;;;;;;;4982758;28;20053;-43
2023/01/06 14:06:21;;;;;;;4.50;3.15;;;;;;;;;;4984448;28;20528;-47
2023/01/06 14:08:52;;;;;;;5.95;3.70;;;;;;;;;;4982691;28;20093;-45
2023/01/06 14:11:37;;;;;;;7.88;3.78;;;;;;;;;;4994018;28;20046;-45
2023/01/06 14:14:18;;;;;;;6.18;3.25;;;;;;;;;;5025094;28;20441;-43
2023/01/06 14:16:47;;;;;;;6.30;3.15;;;;;;;;;;5023562;28;20108;-42
2023/01/06 14:19:38;;;;;;;4.57;3.10;;;;;;;;;;5015636;28;20087;-44
2023/01/06 14:22:15;;;;;;;4.57;3.00;;;;;;;;;;5012923;28;20041;-42
2023/01/06 14:24:48;;;;;;;6.32;3.10;;;;;;;;;;5024277;28;20029;-48
2023/01/06 14:27:14;;;;;;;9.43;3.00;;;;;;;;;;5027891;28;20037;-43
2023/01/06 14:29:39;;;;;;;5.53;3.33;;;;;;;;;;5026217;28;20553;-47
2023/01/06 14:32:25;;;;;;;4.00;2.97;;;;;;;;;;5027995;28;20033;-47
2023/01/06 14:34:57;;;;;;;6.60;3.15;;;;;;;;;;5021927;28;20061;-50
2023/01/06 14:37:28;;;;;;;7.78;3.78;;;;;;;;;;5021067;28;20444;-46
2023/01/06 14:39:55;;;;;;;11.98;5.82;;;;;;;;;;5022424;28;20075;-44
2023/01/06 14:42:38;;;;;;;11.65;5.53;;;;;;;;;;5024817;28;20456;-46
2023/01/06 14:45:28;;;;;;;7.90;4.55;;;;;;;;;;5021508;28;20029;-45
2023/01/06 14:48:01;;;;;;;8.02;4.82;;;;;;;;;;5017080;28;20665;-45
2023/01/06 14:50:34;;;;;;;10.23;5.88;;;;;;;;;;5023590;28;20045;-47
2023/01/06 14:53:07;;;;;;;18.63;9.05;;;;;;;;;;5018061;28;20506;-44
2023/01/06 14:55:37;;;;;;;15.15;7.60;;;;;;;;;;5024562;28;20049;-47
2023/01/06 14:58:02;;;;;;;10.98;7.10;;;;;;;;;;5024078;28;20045;-46
2023/01/06 15:00:29;;;;;;;17.10;7.07;;;;;;;;;;5023669;28;20025;-48